Aérodrome :
LOGIN :

S'inscrire | Disclaimer

   EN    FR    IT 

 










Légende :    VFR   VFR Marginal   IFR   IFR Intensif   IFR Très Intensif
Visi : 
Plafond : 
>= 8 km
>= 3000ft
5 à 8 km
1000 à 3000 ft
1500m à 5 km
500 à 1000 ft
800 à 1500m
200 à 500 ft
< 800m
< 200 ft
Symboles :   Orages  Brouillard  Fortes neiges  Fortes précipitations  Vent > 20 kt
SIGMETs :   Divers  Orages  Givrage  Turbulence  Onde Orograph.  Cendres Volcan.






- Altitude de l'aérodrome : 1411 ft
- Code IATA : SZG


LOWS - Salzburg

DERNIER METAR :
  • 230650Z VRB02KT 6000 3000S FEW001 BKN003 10/10 Q1019 TEMPO 1200 BCFG BECMG BKN006

METARs EXPIRÉS :
  • 230620Z VRB01KT 2000 0500S R15/1500U R33/0550N BCFG FEW001 BKN003 09/09 Q1019 TEMPO 0800 FG BECMG 5000 BR BKN006
  • 230550Z VRB01KT 0300 R15/0400N R33/0400U FG FEW001 BKN002 08/08 Q1019 TEMPO 1200 BCFG BKN005
  • 230520Z VRB01KT 0450 R15/0550N R33/0550U FG FEW001 BKN002 08/08 Q1019 TEMPO 1200 BCFG BKN005
  • 230450Z VRB01KT 0350 R15/0400D R33/0325N FG FEW001 BKN002 08/08 Q1019 TEMPO 1200 BCFG BKN005
  • 230420Z 14003KT 100V180 6000 0500S R15/P1500D R33/0450D BCFG FEW001 BKN002 08/08 Q1019 TEMPO 0800 FG

TAF TAF LOWS
Valide du 23 à 06h jusqu'au 24 à 06h UTC


230515Z 2306/2406 15005KT 9999 FEW020 BKN300 TX21/2314Z TN10/2404Z
PROB40
TEMPO 2306/2308 VRB01KT 0400 FG VV002
TEMPO 2306/2310 1200 BCFG BKN004
TEMPO 2310/2316 02005KT
PROB40
TEMPO 2315/2406 16010G20KT
BECMG 2320/2322 6000 BR NSC
PROB40
TEMPO 2402/2406 VRB01KT 0800 BCFG BKN006



MET'MAP, la Météo Aéronautique d'un coup d'oeil ! - Copyright ORBIFLY Décembre 2007 - Disclaimer

ORBIFLY MET'MAP TEAM :

Programmation & Développement : Alexandra Zaïnal
Conception & Développement : Baudouin d'Aumeries
Co-Programmation & Développement : Marc-Olivier Méhu
Soutien technique & logistique : Manuel Goepfert

Contact : metmap@orbifly.com




SOURCES & CREDITS :

   NOAA